Coward, South Carolina
Current Conditions -  °F | °C
As of 6:53 AM on Friday 19 Dec 2014 (Local Time) from KFLO Reporting Station
Clear Clear  
Wind Chill: 31°   Ceiling: Unl
Heat Index: 35°   Visibility: 10mi
Dew Point: 31°   Wind: 5mph
Humidity: 85%   Direction: 40°NE
Pressure: 30.12"   Gusts: NA
Location:  33.97°N, 79.75°W
Report Text: KFLO 191153Z 04004KT 10SM CLR 02/M01 A3012 RMK AO2 SLP199 T00171006 10039 20017 53012
Loading
Personal Weather Stations






























Interactive Weather Map New forecast layout! Learn more

10-Day Weather Forecast

Advertisements
Track Severe Weather on mobile